createdAt,value
2022-08-09T00:01:01.026Z,3.30
2022-08-09T00:04:33.870Z,2.80
2022-08-09T00:07:55.620Z,2.92
2022-08-09T00:11:24.602Z,3.10
2022-08-09T00:14:47.508Z,3.15
2022-08-09T00:18:12.610Z,3.05
2022-08-09T00:21:35.585Z,3.08
2022-08-09T00:24:56.596Z,3.38
2022-08-09T00:28:18.579Z,3.78
2022-08-09T00:31:59.106Z,2.78
2022-08-09T00:35:13.655Z,3.75
2022-08-09T00:38:35.612Z,3.75
2022-08-09T00:44:13.719Z,4.00
2022-08-09T00:45:38.590Z,4.60
2022-08-09T00:49:13.676Z,4.15
2022-08-09T00:52:35.941Z,5.30
2022-08-09T00:56:04.027Z,4.18
2022-08-09T00:59:40.511Z,5.53
2022-08-09T01:03:11.608Z,5.25
2022-08-09T01:06:54.867Z,4.55
2022-08-09T01:10:42.598Z,4.10
2022-08-09T01:14:23.677Z,4.20
2022-08-09T01:17:49.634Z,4.25
2022-08-09T01:21:44.623Z,5.55
2022-08-09T01:25:48.932Z,4.20
2022-08-09T01:29:15.467Z,4.38
2022-08-09T01:32:45.618Z,4.32
2022-08-09T01:36:20.620Z,3.95
2022-08-09T01:39:44.726Z,4.68
2022-08-09T01:43:07.641Z,3.95
2022-08-09T01:46:29.589Z,4.65
2022-08-09T01:49:54.804Z,4.55
2022-08-09T01:53:19.267Z,4.63
2022-08-09T01:56:42.603Z,5.00
2022-08-09T02:00:34.468Z,6.63
2022-08-09T02:03:53.632Z,5.00
2022-08-09T02:08:35.299Z,5.43
2022-08-09T02:10:57.629Z,4.82
2022-08-09T02:14:39.655Z,5.15
2022-08-09T02:18:10.545Z,5.15
2022-08-09T02:21:34.223Z,5.32
2022-08-09T02:25:04.657Z,6.35
2022-08-09T02:29:00.049Z,5.88
2022-08-09T02:32:23.709Z,5.75
2022-08-09T02:36:03.054Z,5.85
2022-08-09T02:39:34.080Z,5.57
2022-08-09T02:46:30.643Z,6.47
2022-08-09T02:50:02.307Z,7.00
2022-08-09T02:53:29.619Z,5.82
2022-08-09T02:56:53.921Z,6.93
2022-08-09T03:00:25.189Z,6.20
2022-08-09T03:04:17.390Z,6.53
2022-08-09T03:07:31.611Z,5.80
2022-08-09T03:10:55.636Z,6.07
2022-08-09T03:14:17.668Z,6.22
2022-08-09T03:17:39.643Z,5.88
2022-08-09T03:21:02.656Z,6.30
2022-08-09T03:24:31.511Z,6.05
2022-08-09T03:28:11.105Z,6.53
2022-08-09T03:31:33.740Z,5.90
2022-08-09T03:35:04.995Z,5.53
2022-08-09T03:38:44.877Z,4.53
2022-08-09T03:42:06.750Z,4.93
2022-08-09T03:46:03.831Z,4.78
2022-08-09T03:49:12.642Z,5.30
2022-08-09T03:52:39.650Z,5.18
2022-08-09T03:56:03.636Z,5.53
2022-08-09T03:59:27.235Z,5.00
2022-08-09T04:03:07.687Z,4.80
2022-08-09T04:06:32.698Z,4.70
2022-08-09T04:09:54.630Z,4.50
2022-08-09T04:13:19.598Z,5.10
2022-08-09T04:17:17.710Z,4.47
2022-08-09T04:20:38.629Z,4.70
2022-08-09T04:23:59.645Z,6.32
2022-08-09T04:27:22.072Z,4.60
2022-08-09T04:30:44.806Z,4.20
2022-08-09T04:34:05.668Z,4.50
2022-08-09T04:37:45.633Z,4.15
2022-08-09T04:41:11.877Z,3.97
2022-08-09T04:44:32.656Z,4.10
2022-08-09T04:48:00.940Z,3.70
2022-08-09T04:51:24.716Z,4.20
2022-08-09T04:54:46.821Z,3.40
2022-08-09T04:58:09.314Z,3.60
2022-08-09T05:01:30.677Z,3.95
2022-08-09T05:04:55.782Z,4.35
2022-08-09T05:08:16.656Z,4.18
2022-08-09T05:11:37.673Z,3.67
2022-08-09T05:14:58.667Z,4.47
2022-08-09T05:18:50.702Z,3.85
2022-08-09T05:22:01.912Z,3.65
2022-08-09T05:25:22.774Z,3.92
2022-08-09T05:28:43.674Z,4.20
2022-08-09T05:32:08.672Z,4.82
2022-08-09T05:35:30.717Z,3.22
2022-08-09T05:38:59.674Z,3.70
2022-08-09T05:42:31.233Z,3.20
2022-08-09T05:45:55.987Z,3.25
2022-08-09T05:50:25.041Z,3.67
2022-08-09T05:52:59.680Z,3.38
2022-08-09T05:56:20.697Z,3.90
2022-08-09T05:59:46.680Z,4.57
2022-08-09T06:03:19.825Z,3.58
2022-08-09T06:06:45.213Z,6.10
2022-08-09T06:10:15.888Z,3.63
2022-08-09T06:13:39.709Z,3.10
2022-08-09T06:17:05.018Z,3.15
2022-08-09T06:20:30.712Z,3.33
2022-08-09T06:23:57.460Z,2.85
2022-08-09T06:27:21.676Z,2.97
2022-08-09T06:30:43.679Z,2.97
2022-08-09T06:34:04.720Z,3.90
2022-08-09T06:37:28.948Z,3.03
2022-08-09T06:40:49.855Z,3.70
2022-08-09T06:44:18.275Z,3.38
2022-08-09T06:47:41.791Z,3.70
2022-08-09T06:51:04.487Z,2.90
2022-08-09T06:54:26.202Z,3.47
2022-08-09T06:58:03.526Z,3.10
2022-08-09T07:01:35.751Z,3.83
2022-08-09T07:05:05.751Z,3.17
2022-08-09T07:08:27.714Z,3.10
2022-08-09T07:11:53.514Z,3.15
2022-08-09T07:16:36.410Z,3.10
2022-08-09T07:18:50.097Z,4.07
2022-08-09T07:22:10.939Z,3.28
2022-08-09T07:25:32.733Z,3.28
2022-08-09T07:29:12.366Z,3.53
2022-08-09T07:32:35.075Z,3.45
2022-08-09T07:35:56.699Z,3.35
2022-08-09T07:39:20.454Z,3.25
2022-08-09T07:43:16.433Z,3.35
2022-08-09T07:46:37.735Z,3.40
2022-08-09T07:50:08.171Z,4.43
2022-08-09T07:54:01.533Z,3.50
2022-08-09T07:57:11.858Z,2.63
2022-08-09T08:00:35.772Z,2.70
2022-08-09T08:03:57.743Z,2.40
2022-08-09T08:08:44.262Z,3.15
2022-08-09T08:11:03.488Z,3.33
2022-08-09T08:14:42.750Z,3.08
2022-08-09T08:18:06.789Z,3.08
2022-08-09T08:21:27.711Z,2.90
2022-08-09T08:24:51.014Z,2.50
2022-08-09T08:28:14.472Z,3.13
2022-08-09T08:31:56.422Z,3.20
2022-08-09T08:35:18.268Z,2.88
2022-08-09T08:38:39.813Z,2.60
2022-08-09T08:42:01.725Z,3.00
2022-08-09T08:49:01.727Z,2.65
2022-08-09T08:52:58.087Z,3.08
2022-08-09T08:56:03.788Z,3.20
2022-08-09T08:59:28.143Z,3.28
2022-08-09T09:03:22.674Z,4.72
2022-08-09T09:06:56.743Z,3.17
2022-08-09T09:10:21.735Z,2.80
2022-08-09T09:13:57.986Z,3.90
2022-08-09T09:17:18.746Z,3.47
2022-08-09T09:20:47.778Z,3.72
2022-08-09T09:24:10.302Z,3.70
2022-08-09T09:28:06.017Z,3.78
2022-08-09T09:32:04.085Z,3.40
2022-08-09T09:35:19.726Z,3.63
2022-08-09T09:38:53.740Z,3.22
2022-08-09T09:42:17.770Z,2.92
2022-08-09T09:45:56.771Z,4.20
2022-08-09T09:49:56.687Z,3.95
2022-08-09T09:53:10.566Z,2.73
2022-08-09T09:59:55.760Z,3.58
2022-08-09T10:06:54.470Z,3.40
2022-08-09T10:10:18.714Z,2.78
2022-08-09T10:13:51.786Z,4.00
2022-08-09T10:17:40.003Z,3.47
2022-08-09T10:20:46.746Z,3.08
2022-08-09T10:24:09.748Z,3.22
2022-08-09T10:27:44.948Z,3.20
2022-08-09T10:34:59.761Z,3.45
2022-08-09T10:38:39.652Z,2.67
2022-08-09T10:42:03.672Z,2.55
2022-08-09T10:45:31.493Z,2.63
2022-08-09T10:49:10.489Z,2.78
2022-08-09T10:52:44.922Z,3.03
2022-08-09T10:56:23.235Z,2.60
2022-08-09T10:59:57.360Z,2.45
2022-08-09T11:03:50.214Z,2.42
2022-08-09T11:07:11.878Z,2.70
2022-08-09T11:11:00.919Z,4.00
2022-08-09T11:14:44.064Z,2.58
2022-08-09T11:18:06.797Z,3.00
2022-08-09T11:22:10.504Z,4.07
2022-08-09T11:25:48.517Z,2.35
2022-08-09T11:29:09.784Z,2.90
2022-08-09T11:33:12.904Z,3.38
2022-08-09T11:36:36.941Z,2.90
2022-08-09T11:40:19.862Z,3.80
2022-08-09T11:43:42.788Z,3.40
2022-08-09T11:47:14.547Z,2.25
2022-08-09T11:50:54.794Z,2.95
2022-08-09T11:54:33.218Z,2.67
2022-08-09T11:58:02.000Z,3.05
2022-08-09T12:01:37.403Z,2.88
2022-08-09T12:05:06.853Z,2.92
2022-08-09T12:08:39.846Z,2.60
2022-08-09T12:15:52.328Z,2.63
2022-08-09T12:19:14.839Z,2.38
2022-08-09T12:22:37.792Z,2.10
2022-08-09T12:26:06.807Z,2.22
2022-08-09T12:33:16.823Z,2.53
2022-08-09T12:36:39.840Z,2.40
2022-08-09T12:40:20.867Z,2.22
2022-08-09T12:44:06.463Z,2.35
2022-08-09T12:47:23.838Z,2.63
2022-08-09T12:50:45.823Z,3.70
2022-08-09T12:54:16.844Z,3.58
2022-08-09T12:57:55.819Z,2.33
2022-08-09T13:01:42.870Z,2.45
2022-08-09T13:05:13.825Z,2.95
2022-08-09T13:08:40.442Z,3.53
2022-08-09T13:12:04.827Z,3.38
2022-08-09T13:15:25.799Z,3.58
2022-08-09T13:19:03.857Z,3.72
2022-08-09T13:23:01.134Z,3.53
2022-08-09T13:26:14.838Z,2.15
2022-08-09T13:30:02.647Z,2.40
2022-08-09T13:33:18.207Z,2.28
2022-08-09T13:36:43.173Z,2.03
2022-08-09T13:41:51.144Z,1.70
2022-08-09T13:43:46.866Z,2.10
2022-08-09T13:47:17.987Z,2.28
2022-08-09T13:50:48.887Z,2.17
2022-08-09T13:54:13.453Z,2.63
2022-08-09T13:57:36.482Z,2.20
2022-08-09T14:00:59.858Z,2.90
2022-08-09T14:04:23.997Z,2.13
2022-08-09T14:07:47.844Z,2.00
2022-08-09T14:11:15.966Z,2.70
2022-08-09T14:14:36.878Z,1.90
2022-08-09T14:18:19.988Z,1.77
2022-08-09T14:21:38.848Z,2.70
2022-08-09T14:24:59.875Z,1.90
2022-08-09T14:28:20.942Z,2.50
2022-08-09T14:31:51.979Z,3.65
2022-08-09T14:35:14.880Z,2.70
2022-08-09T14:38:35.857Z,1.90
2022-08-09T14:41:59.878Z,2.33
2022-08-09T14:46:54.311Z,2.92
2022-08-09T14:49:03.886Z,1.67
2022-08-09T14:52:25.410Z,3.15
2022-08-09T14:55:50.064Z,2.30
2022-08-09T14:59:14.504Z,2.50
2022-08-09T15:02:36.104Z,2.88
2022-08-09T15:06:04.875Z,2.63
2022-08-09T15:10:04.004Z,2.33
2022-08-09T15:13:10.874Z,2.22
2022-08-09T15:16:31.935Z,2.83
2022-08-09T15:19:54.647Z,2.72
2022-08-09T15:24:01.797Z,2.28
2022-08-09T15:27:01.864Z,2.80
2022-08-09T15:30:48.656Z,2.78
2022-08-09T15:34:19.565Z,2.60
2022-08-09T15:37:57.294Z,3.17
2022-08-09T15:41:22.355Z,3.72
2022-08-09T15:44:42.853Z,3.58
2022-08-09T15:48:17.843Z,2.38
2022-08-09T15:52:03.738Z,3.10
2022-08-09T15:55:30.905Z,2.70
2022-08-09T15:59:11.901Z,2.38
2022-08-09T16:02:32.899Z,2.60
2022-08-09T16:05:55.320Z,2.65
2022-08-09T16:09:32.584Z,2.45
2022-08-09T16:13:04.912Z,2.45
2022-08-09T16:16:41.770Z,2.75
2022-08-09T16:20:09.092Z,2.70
2022-08-09T16:23:29.868Z,3.58
2022-08-09T16:26:51.880Z,3.80
2022-08-09T16:30:15.010Z,3.33
2022-08-09T16:33:38.886Z,3.22
2022-08-09T16:36:59.884Z,3.10
2022-08-09T16:40:40.269Z,2.65
2022-08-09T16:44:01.865Z,3.80
2022-08-09T16:48:39.466Z,3.63
2022-08-09T16:51:07.901Z,3.45
2022-08-09T16:54:34.775Z,3.60
2022-08-09T16:58:09.349Z,4.03
2022-08-09T17:01:33.917Z,3.95
2022-08-09T17:04:59.001Z,3.53
2022-08-09T17:08:42.777Z,3.85
2022-08-09T17:12:01.938Z,4.50
2022-08-09T17:15:58.697Z,4.45
2022-08-09T17:19:10.908Z,4.43
2022-08-09T17:22:32.889Z,4.28
2022-08-09T17:25:54.910Z,4.57
2022-08-09T17:29:20.259Z,4.22
2022-08-09T17:32:45.435Z,3.50
2022-08-09T17:36:10.974Z,3.97
2022-08-09T17:39:52.191Z,6.20
2022-08-09T17:43:34.138Z,6.57
2022-08-09T17:46:57.755Z,4.55
2022-08-09T17:50:36.426Z,6.00
2022-08-09T17:53:57.908Z,4.80
2022-08-09T17:57:24.406Z,4.72
2022-08-09T18:01:01.026Z,5.45
2022-08-09T18:04:22.976Z,7.25
2022-08-09T18:07:48.632Z,4.97
2022-08-09T18:11:09.910Z,7.60
2022-08-09T18:14:36.946Z,5.03
2022-08-09T18:18:26.067Z,6.38
2022-08-09T18:21:52.909Z,5.45
2022-08-09T18:25:14.933Z,5.72
2022-08-09T18:30:35.288Z,6.03
2022-08-09T18:32:20.958Z,5.90
2022-08-09T18:35:59.556Z,6.05
2022-08-09T18:39:20.995Z,5.43
2022-08-09T18:42:43.855Z,7.10
2022-08-09T18:46:46.856Z,7.28
2022-08-09T18:49:46.252Z,6.80
2022-08-09T18:53:13.391Z,6.60
2022-08-09T18:56:34.976Z,7.78
2022-08-09T19:00:01.639Z,7.18
2022-08-09T19:03:24.942Z,6.72
2022-08-09T19:06:50.424Z,7.28
2022-08-09T19:10:17.592Z,6.18
2022-08-09T19:13:51.401Z,7.13
2022-08-09T19:17:12.989Z,7.13
2022-08-09T19:20:39.223Z,7.15
2022-08-09T19:24:37.136Z,6.78
2022-08-09T19:27:41.936Z,7.18
2022-08-09T19:31:02.938Z,7.18
2022-08-09T19:34:41.430Z,7.93
2022-08-09T19:38:04.951Z,7.60
2022-08-09T19:41:32.862Z,7.68
2022-08-09T19:44:55.970Z,7.95
2022-08-09T19:48:16.963Z,7.72
2022-08-09T19:51:57.979Z,7.70
2022-08-09T19:55:19.537Z,7.85
2022-08-09T19:58:56.382Z,8.40
2022-08-09T20:04:16.614Z,6.88
2022-08-09T20:06:03.205Z,7.65
2022-08-09T20:09:44.403Z,7.63
2022-08-09T20:13:05.032Z,7.75
2022-08-09T20:16:33.209Z,7.80
2022-08-09T20:19:59.927Z,7.88
2022-08-09T20:23:22.885Z,7.80
2022-08-09T20:26:44.972Z,8.23
2022-08-09T20:30:07.948Z,8.23
2022-08-09T20:33:38.946Z,7.75
2022-08-09T20:37:01.960Z,8.45
2022-08-09T20:40:26.647Z,8.70
2022-08-09T20:43:48.959Z,9.82
2022-08-09T20:47:45.542Z,8.25
2022-08-09T20:51:01.303Z,7.82
2022-08-09T20:54:24.737Z,8.70
2022-08-09T20:58:05.663Z,8.55
2022-08-09T21:01:35.443Z,7.72
2022-08-09T21:05:57.264Z,8.18
2022-08-09T21:08:49.953Z,7.57
2022-08-09T21:15:34.843Z,7.75
2022-08-09T21:20:05.188Z,8.30
2022-08-09T21:22:39.506Z,6.78
2022-08-09T21:26:00.960Z,6.82
2022-08-09T21:29:22.902Z,6.93
2022-08-09T21:32:43.988Z,7.00
2022-08-09T21:36:05.972Z,7.50
2022-08-09T21:39:42.106Z,7.55
2022-08-09T21:43:03.968Z,8.00
2022-08-09T21:46:27.014Z,8.68
2022-08-09T21:49:51.974Z,8.07
2022-08-09T21:53:15.626Z,8.25
2022-08-09T21:56:54.657Z,8.13
2022-08-09T22:00:16.987Z,8.23
2022-08-09T22:03:48.539Z,7.85
2022-08-09T22:07:35.051Z,7.97
2022-08-09T22:12:05.222Z,7.90
2022-08-09T22:14:43.028Z,8.35
2022-08-09T22:18:05.016Z,7.60
2022-08-09T22:21:45.259Z,7.28
2022-08-09T22:26:08.311Z,6.82
2022-08-09T22:28:54.212Z,6.75
2022-08-09T22:32:08.007Z,6.10
2022-08-09T22:36:02.323Z,6.18
2022-08-09T22:39:55.780Z,5.53
2022-08-09T22:43:08.675Z,5.88
2022-08-09T22:48:13.137Z,6.38
2022-08-09T22:50:19.002Z,6.53
2022-08-09T22:53:58.726Z,5.38
2022-08-09T22:57:21.017Z,5.32
2022-08-09T23:00:42.023Z,5.47
2022-08-09T23:04:07.244Z,5.35
2022-08-09T23:08:29.197Z,4.38
2022-08-09T23:11:33.066Z,4.75
2022-08-09T23:14:54.196Z,5.57
2022-08-09T23:18:15.041Z,6.30
2022-08-09T23:21:37.877Z,6.15
2022-08-09T23:25:00.012Z,6.60
2022-08-09T23:28:21.010Z,5.95
2022-08-09T23:31:35.013Z,5.45
2022-08-09T23:34:56.013Z,5.20
2022-08-09T23:38:17.003Z,4.65
2022-08-09T23:41:32.013Z,4.00
2022-08-09T23:44:53.018Z,4.07
2022-08-09T23:48:14.009Z,4.28
2022-08-09T23:51:35.004Z,4.50
2022-08-09T23:54:56.000Z,4.10
2022-08-09T23:58:24.340Z,3.65
